D/T METAR WX W/DIR W/SPE G/SPE TEMP DEWP
25/05/20 18:20 EGPA 251720Z AUTO 19012KT 9999 NCD 14/09 Q1025 S (190°) 13.8mph 14°C 9°C
25/05/20 17:50 EGPA 251650Z AUTO 18011KT 9999 NCD 14/09 Q1024 S (180°) 12.7mph 14°C 9°C
25/05/20 17:20 EGPA 251620Z AUTO 17019KT 9999 NCD 14/09 Q1024 S (170°) 21.9mph 14°C 9°C
25/05/20 16:50 EGPA 251550Z 17021KT CAVOK 14/09 Q1024 S (170°) 24.2mph 14°C 9°C
25/05/20 16:20 EGPA 251520Z 17023KT CAVOK 15/09 Q1025 S (170°) 26.5mph 15°C 9°C
25/05/20 15:50 EGPA 251450Z 17024KT CAVOK 15/09 Q1025 S (170°) 27.6mph 15°C 9°C
25/05/20 15:20 EGPA 251420Z 17024KT CAVOK 14/08 Q1025 S (170°) 27.6mph 14°C 8°C
25/05/20 14:50 EGPA 251350Z 17025KT CAVOK 14/09 Q1025 S (170°) 28.8mph 14°C 9°C
25/05/20 14:20 EGPA 251320Z 18024KT CAVOK 15/09 Q1026 S (180°) 27.6mph 15°C 9°C
25/05/20 13:50 EGPA 251250Z 17023KT CAVOK 14/09 Q1026 S (170°) 26.5mph 14°C 9°C
25/05/20 13:20 EGPA 251220Z 17021KT CAVOK 15/09 Q1026 S (170°) 24.2mph 15°C 9°C
25/05/20 12:50 EGPA 251150Z 19018KT CAVOK 14/09 Q1026 S (190°) 20.7mph 14°C 9°C
25/05/20 12:20 EGPA 251120Z 18017KT CAVOK 14/09 Q1027 S (180°) 19.6mph 14°C 9°C
25/05/20 11:50 EGPA 251050Z 18019KT CAVOK 13/09 Q1027 S (180°) 21.9mph 13°C 9°C
25/05/20 11:20 EGPA 251020Z 18021KT CAVOK 13/09 Q1026 S (180°) 24.2mph 13°C 9°C
25/05/20 10:50 EGPA 250950Z 18020KT CAVOK 14/10 Q1027 S (180°) 23.0mph 14°C 10°C
25/05/20 10:20 EGPA 250920Z 18018KT CAVOK 13/09 Q1027 S (180°) 20.7mph 13°C 9°C
25/05/20 09:50 EGPA 250850Z 19019KT CAVOK 14/10 Q1027 S (190°) 21.9mph 14°C 10°C
25/05/20 09:20 EGPA 250820Z 18016KT CAVOK 13/09 Q1027 S (180°) 18.4mph 13°C 9°C
25/05/20 08:50 EGPA 250750Z AUTO 18015KT 9999 NCD 12/09 Q1027 S (180°) 17.3mph 12°C 9°C
25/05/20 08:20 EGPA 250720Z AUTO 18017KT 9999 NCD 11/09 Q1027 S (180°) 19.6mph 11°C 9°C
25/05/20 07:50 EGPA 250650Z AUTO 18014KT 9999 NCD 11/09 Q1027 S (180°) 16.1mph 11°C 9°C
25/05/20 07:20 EGPA 250620Z AUTO 19018KT 9999 NCD 11/09 Q1027 S (190°) 20.7mph 11°C 9°C
25/05/20 06:50 EGPA 250550Z AUTO 19017KT 9999 NCD 11/08 Q1027 S (190°) 19.6mph 11°C 8°C
25/05/20 06:20 EGPA 250520Z AUTO 18014KT 9999 NCD 10/08 Q1028 S (180°) 16.1mph 10°C 8°C
25/05/20 05:50 EGPA 250450Z AUTO 19015KT 9999 NCD 10/07 Q1028 S (190°) 17.3mph 10°C 7°C
25/05/20 05:20 EGPA 250420Z AUTO 19010KT 9999 NCD 09/07 Q1028 S (190°) 11.5mph 9°C 7°C
25/05/20 04:50 EGPA 250350Z AUTO 19007KT 9999 NCD 08/06 Q1027 S (190°) 8.1mph 8°C 6°C
25/05/20 04:20 EGPA 250320Z AUTO 18006KT 9999 BKN030/// 08/06 Q1027 S (180°) 6.9mph 8°C 6°C
25/05/20 03:50 EGPA 250250Z AUTO 17008KT 9999 OVC031/// 10/07 Q1027 S (170°) 9.2mph 10°C 7°C
25/05/20 03:20 EGPA 250220Z AUTO 20008KT 9999 OVC030/// 09/07 Q1027 SSW (200°) 9.2mph 9°C 7°C
25/05/20 02:50 EGPA 250150Z AUTO 16006KT 130V200 9999 OVC031/// 09/07 Q1027 SSE (160°) 6.9mph 9°C 7°C
25/05/20 02:20 EGPA 250120Z AUTO 19006KT 9999 OVC035/// 08/07 Q1027 S (190°) 6.9mph 8°C 7°C
25/05/20 01:20 EGPA 250020Z AUTO 16002KT 9999 SCT039/// 07/06 Q1027 SSE (160°) 2.3mph 7°C 6°C
25/05/20 00:50 EGPA 242350Z AUTO 18006KT 9999 NCD 09/07 Q1027 S (180°) 6.9mph 9°C 7°C
25/05/20 00:20 EGPA 242320Z AUTO 23013KT 9999 NCD 10/07 Q1026 SW (230°) 15.0mph 10°C 7°C
24/05/20 23:50 EGPA 242250Z AUTO 24013KT 9999 SCT038/// 10/07 Q1026 WSW (240°) 15.0mph 10°C 7°C
24/05/20 23:20 EGPA 242220Z AUTO 25014KT 9999 BKN034/// 11/08 Q1027 WSW (250°) 16.1mph 11°C 8°C
24/05/20 22:50 EGPA 242150Z AUTO 22008KT 9999 BKN033/// 10/08 Q1026 SW (220°) 9.2mph 10°C 8°C
24/05/20 22:20 EGPA 242120Z AUTO 26013KT 9999 OVC028/// 11/09 Q1026 W (260°) 15.0mph 11°C 9°C
24/05/20 21:50 EGPA 242050Z AUTO 28015KT 9999 OVC026/// 11/09 Q1026 W (280°) 17.3mph 11°C 9°C
24/05/20 21:20 EGPA 242020Z AUTO 27010KT 9999 OVC020/// 11/09 Q1026 W (270°) 11.5mph 11°C 9°C
24/05/20 20:50 EGPA 241950Z AUTO 26010KT 9999 OVC024/// 11/09 Q1025 W (260°) 11.5mph 11°C 9°C
24/05/20 20:20 EGPA 241920Z AUTO 26012KT 9999 BKN025/// OVC029/// 11/09 Q1025 W (260°) 13.8mph 11°C 9°C
24/05/20 19:50 EGPA 241850Z AUTO 27016KT 9999 FEW006/// SCT017/// OVC025/// 11/10 Q1025 W (270°) 18.4mph 11°C 10°C
24/05/20 19:20 EGPA 241820Z AUTO 27016KT 9999 BKN005/// OVC017/// 11/10 Q1024 W (270°) 18.4mph 11°C 10°C
24/05/20 18:50 EGPA 241750Z AUTO 27017KT 9999 BKN004/// OVC013/// 11/10 Q1024 W (270°) 19.6mph 11°C 10°C
24/05/20 18:20 EGPA 241720Z AUTO 27016KT 7000 OVC002/// 11/10 Q1023 W (270°) 18.4mph 11°C 10°C
24/05/20 17:20 EGPA 241620Z AUTO 27009KT 9999 BKN003/// OVC010/// 11/10 Q1023 W (270°) 10.4mph 11°C 10°C
24/05/20 16:50 EGPA 241550Z AUTO 28015KT 9999 FEW008/// BKN012/// BKN022/// 12/09 Q1022 W (280°) 17.3mph 12°C 9°C
24/05/20 16:20 EGPA 241520Z 28015KT 9999 FEW014 BKN020 12/09 Q1022 W (280°) 17.3mph 12°C 9°C
24/05/20 15:50 EGPA 241450Z 28017KT 9999 FEW014 BKN020 12/09 Q1022 W (280°) 19.6mph 12°C 9°C
24/05/20 15:20 EGPA 241420Z 29018KT 9999 FEW014 BKN020 13/09 Q1021 WNW (290°) 20.7mph 13°C 9°C
24/05/20 14:50 EGPA 241350Z 29020KT 9999 FEW014 BKN020 13/08 Q1021 WNW (290°) 23.0mph 13°C 8°C
24/05/20 14:20 EGPA 241320Z 29020KT 9999 FEW015 SCT024 13/09 Q1020 WNW (290°) 23.0mph 13°C 9°C
24/05/20 13:50 EGPA 241250Z 28023KT 9999 FEW015 SCT024 13/09 Q1019 W (280°) 26.5mph 13°C 9°C
24/05/20 13:20 EGPA 241220Z 29022KT 9999 FEW015 SCT024 12/08 Q1019 WNW (290°) 25.3mph 12°C 8°C
24/05/20 12:50 EGPA 241150Z AUTO 29023KT 9999 BKN015/// BKN020/// OVC031/// 12/08 Q1018 WNW (290°) 26.5mph 12°C 8°C
24/05/20 12:20 EGPA 241120Z AUTO 29019KT 9999 BKN015/// BKN024/// OVC028/// 12/08 Q1017 WNW (290°) 21.9mph 12°C 8°C
24/05/20 11:50 EGPA 241050Z AUTO 29024KT 9999 SCT016/// OVC022/// 11/07 Q1017 WNW (290°) 27.6mph 11°C 7°C
24/05/20 11:20 EGPA 241020Z AUTO 29020KT 9999 SCT015/// OVC020/// 11/08 Q1016 WNW (290°) 23.0mph 11°C 8°C
24/05/20 10:50 EGPA 240950Z AUTO 28021KT 9999 SCT011/// OVC017/// 10/07 Q1016 W (280°) 24.2mph 10°C 7°C
24/05/20 10:20 EGPA 240920Z AUTO 28024G34KT 9999 BKN015/// BKN021/// OVC027/// 10/07 Q1015 W (280°) 27.6mph 39.1mph 10°C 7°C
24/05/20 09:50 EGPA 240850Z AUTO 29027KT 9999 SCT015/// BKN020/// OVC025/// 11/07 Q1015 WNW (290°) 31.1mph 11°C 7°C
24/05/20 09:20 EGPA 240820Z AUTO 29026KT 9999 OVC017/// 11/07 Q1014 WNW (290°) 29.9mph 11°C 7°C
24/05/20 08:50 EGPA 240750Z AUTO 29027G38KT 9999 BKN014/// OVC027/// 10/07 Q1013 WNW (290°) 31.1mph 43.7mph 10°C 7°C
24/05/20 08:20 EGPA 240720Z AUTO 29024G35KT 9999 BKN019/// OVC023/// 10/07 Q1013 WNW (290°) 27.6mph 40.3mph 10°C 7°C
24/05/20 07:50 EGPA 240650Z AUTO 29024KT 9999 SCT014/// OVC019/// 10/07 Q1012 WNW (290°) 27.6mph 10°C 7°C
24/05/20 07:20 EGPA 240620Z AUTO 29025G36KT 9999 FEW015/// OVC022/// 10/07 Q1011 WNW (290°) 28.8mph 41.4mph 10°C 7°C
24/05/20 06:50 EGPA 240550Z AUTO 29029G40KT 9999 BKN020/// BKN026/// 10/07 Q1010 WNW (290°) 33.4mph 46.0mph 10°C 7°C
24/05/20 06:20 EGPA 240520Z AUTO 29026G41KT 9999 FEW015/// BKN019/// OVC024/// 09/07 Q1009 WNW (290°) 29.9mph 47.2mph 9°C 7°C
24/05/20 05:50 EGPA 240450Z AUTO 29033G45KT 9999 SCT013/// BKN019/// OVC025/// 09/07 Q1009 WNW (290°) 38.0mph 51.8mph 9°C 7°C
24/05/20 05:20 EGPA 240420Z AUTO 29033G47KT 9999 FEW005/// BKN010/// OVC015/// 09/07 Q1008 WNW (290°) 38.0mph 54.1mph 9°C 7°C
24/05/20 04:50 EGPA 240350Z AUTO 29030G42KT 9999 FEW005/// SCT012/// BKN016/// 09/07 Q1007 WNW (290°) 34.5mph 48.3mph 9°C 7°C
24/05/20 04:20 EGPA 240320Z AUTO 28030G44KT 7000 -RA FEW004/// BKN009/// OVC017/// 09/08 Q1007 -RA W (280°) 34.5mph 50.6mph 9°C 8°C
24/05/20 03:50 EGPA 240250Z AUTO 28034G48KT 8000 -RA OVC006/// 09/08 Q1006 -RA W (280°) 39.1mph 55.2mph 9°C 8°C
24/05/20 03:20 EGPA 240220Z AUTO 28035G47KT 9999 BKN004/// OVC015/// 09/08 Q1005 W (280°) 40.3mph 54.1mph 9°C 8°C
24/05/20 02:50 EGPA 240150Z AUTO 28035G47KT 7000 -RA OVC004/// 09/08 Q1004 -RA W (280°) 40.3mph 54.1mph 9°C 8°C
24/05/20 02:20 EGPA 240120Z AUTO 28030KT 9999 BKN006/// OVC011/// 10/08 Q1004 W (280°) 34.5mph 10°C 8°C
24/05/20 01:50 EGPA 240050Z AUTO 28033G44KT 9999 BKN006/// OVC023/// 10/08 Q1003 W (280°) 38.0mph 50.6mph 10°C 8°C
24/05/20 01:20 EGPA 240020Z AUTO 28031G43KT 9999 SCT010/// BKN014/// OVC023/// 10/08 Q1002 W (280°) 35.7mph 49.5mph 10°C 8°C
24/05/20 00:50 EGPA 232350Z AUTO 28033G46KT 9999 BKN004/// OVC014/// 10/08 Q1002 RERA W (280°) 38.0mph 52.9mph 10°C 8°C
24/05/20 00:20 EGPA 232320Z AUTO 27034G47KT 4700 RA BKN003/// OVC010/// 09/08 Q1001 RA W (270°) 39.1mph 54.1mph 9°C 8°C
23/05/20 23:50 EGPA 232250Z AUTO 27034G47KT 7000 -RA BKN004/// BKN010/// OVC015/// 09/08 Q1001 RERA -RA W (270°) 39.1mph 54.1mph 9°C 8°C
23/05/20 23:20 EGPA 232220Z AUTO 27035G49KT 9999 -RA BKN004/// OVC015/// 10/08 Q1000 -RA W (270°) 40.3mph 56.4mph 10°C 8°C
23/05/20 22:50 EGPA 232150Z AUTO 27036G49KT 7000 -RA OVC002/// 09/08 Q1000 RERA -RA W (270°) 41.4mph 56.4mph 9°C 8°C
23/05/20 22:20 EGPA 232120Z AUTO 27032G46KT 4300 RA OVC003/// 09/08 Q0999 RA W (270°) 36.8mph 52.9mph 9°C 8°C
23/05/20 21:50 EGPA 232050Z 27033G46KT 4000 SHRA DZ BR BKN003 BKN010 OVC018 09/08 Q0999 SHRA DZ BR W (270°) 38.0mph 52.9mph 9°C 8°C
23/05/20 21:20 EGPA 232020Z 26034G46KT 3000 SHRA DZ BR BKN004 BKN010 OVC018 09/08 Q0998 SHRA DZ BR W (260°) 39.1mph 52.9mph 9°C 8°C
23/05/20 20:50 EGPA 231950Z 26034G45KT 5000 SHRA DZ SCT004 BKN010 BKN018 09/08 Q0997 RERA SHRA DZ W (260°) 39.1mph 51.8mph 9°C 8°C
23/05/20 20:20 EGPA 231920Z AUTO 25033G45KT 3600 RA SCT004/// BKN010/// BKN015/// 09/08 Q0997 RERA RA WSW (250°) 38.0mph 51.8mph 9°C 8°C
23/05/20 19:50 EGPA 231850Z AUTO 25029G41KT 2900 +RA SCT011/// BKN017/// BKN021/// 09/08 Q0997 +RA WSW (250°) 33.4mph 47.2mph 9°C 8°C
23/05/20 19:20 EGPA 231820Z AUTO 25030G41KT 3800 RA BKN012/// OVC023/// 09/07 Q0997 RA WSW (250°) 34.5mph 47.2mph 9°C 7°C
23/05/20 18:50 EGPA 231750Z AUTO 24029G41KT 9999 -RA BKN015/// BKN027/// OVC032/// 09/07 Q0997 -RA WSW (240°) 33.4mph 47.2mph 9°C 7°C
23/05/20 18:20 EGPA 231720Z AUTO 25026G38KT 7000 -RA SCT015/// BKN020/// BKN024/// 09/08 Q0997 -RA WSW (250°) 29.9mph 43.7mph 9°C 8°C
23/05/20 17:50 EGPA 231650Z AUTO 25026KT 9999 -RA BKN018/// BKN031/// 10/08 Q0997 -RA WSW (250°) 29.9mph 10°C 8°C